Time;durP1;ratioP1;P1;durP2;ratioP2;P2;SDS_P1;SDS_P2;PMS_P1;PMS_P2;Temp;Humidity;BMP_temperature;BMP_pressure;BME280_temperature;BME280_humidity;BME280_pressure;Samples;Min_cycle;Max_cycle;Signal;HPM_P1;HPM_P2
2022/08/20 00:05:00;;;;;;;10.57;4.53;;;;;;;24.34;72.23;99939.87;18566479;32;20147;-56
2022/08/20 00:15:05;;;;;;;11.32;4.37;;;;;;;24.16;72.71;99936.62;18565934;32;20107;-56
2022/08/20 00:25:11;;;;;;;9.90;3.92;;;;;;;23.40;72.45;99953.00;18566591;32;20110;-56
2022/08/20 00:35:15;;;;;;;9.02;4.00;;;;;;;22.94;74.62;99948.72;18565490;32;20089;-56
2022/08/20 00:45:21;;;;;;;11.02;4.10;;;;;;;23.86;71.57;99958.16;18565225;32;20096;-56
2022/08/20 00:55:26;;;;;;;8.32;3.87;;;;;;;24.06;70.96;99962.19;18564749;32;20096;-56
2022/08/20 01:05:35;;;;;;;11.63;4.25;;;;;;;24.25;69.96;99946.66;18563753;32;20107;-56
2022/08/20 01:15:40;;;;;;;10.70;3.70;;;;;;;24.20;70.20;99921.25;18563852;32;20110;-56
2022/08/20 01:25:49;;;;;;;14.30;4.37;;;;;;;23.88;71.35;99900.25;18564959;32;20083;-56
2022/08/20 01:35:53;;;;;;;10.32;4.18;;;;;;;23.98;70.69;99872.88;18563605;32;20076;-56
2022/08/20 01:45:58;;;;;;;10.85;4.35;;;;;;;23.76;71.48;99840.63;18563209;32;20459;-56
2022/08/20 01:56:03;;;;;;;10.13;3.80;;;;;;;24.00;70.89;99837.25;18563273;32;20190;-56
2022/08/20 02:06:09;;;;;;;7.12;2.90;;;;;;;23.83;70.33;99842.78;18562645;32;20110;-56
2022/08/20 02:16:13;;;;;;;10.93;3.62;;;;;;;23.79;69.73;99837.75;18562371;32;20110;-56
2022/08/20 02:26:18;;;;;;;9.25;3.10;;;;;;;23.77;69.32;99837.88;18563055;32;20179;-56
2022/08/20 02:36:21;;;;;;;9.38;4.05;;;;;;;23.72;70.02;99874.59;18563129;32;20121;-56
2022/08/20 02:46:27;;;;;;;7.60;3.42;;;;;;;23.07;72.56;99892.91;18561583;32;20080;-56
2022/08/20 02:56:31;;;;;;;9.93;3.62;;;;;;;23.34;72.01;99900.13;18561411;32;20110;-56
2022/08/20 03:06:35;;;;;;;8.70;3.60;;;;;;;23.60;70.74;99921.56;18560955;32;20136;-56
2022/08/20 03:16:39;;;;;;;8.38;3.50;;;;;;;23.60;70.43;99910.91;18560744;32;20635;-56
2022/08/20 03:26:43;;;;;;;9.25;3.20;;;;;;;23.54;70.49;99900.66;18559312;32;20099;-56
2022/08/20 03:36:46;;;;;;;8.40;3.50;;;;;;;23.66;69.89;99950.47;18559414;32;20096;-56
2022/08/20 03:46:51;;;;;;;7.82;3.20;;;;;;;23.33;70.12;99970.28;18584298;31;20163;-56
2022/08/20 03:56:55;;;;;;;8.38;3.45;;;;;;;23.50;70.03;99923.97;18623296;31;20160;-56
2022/08/20 04:06:59;;;;;;;10.57;3.35;;;;;;;23.55;69.80;99955.63;18622239;31;20118;-56
2022/08/20 04:17:05;;;;;;;10.98;3.28;;;;;;;22.51;74.33;99962.81;18621795;31;20119;-56
2022/08/20 04:27:10;;;;;;;13.30;3.90;;;;;;;23.11;71.79;99968.09;18621302;31;20110;-56
2022/08/20 04:37:13;;;;;;;11.85;4.57;;;;;;;23.53;70.51;99984.19;18611824;31;20124;-56
2022/08/20 04:47:21;;;;;;;11.10;4.93;;;;;;;21.64;80.96;99949.09;18617044;31;20521;-56
2022/08/20 04:57:37;;;;;;;9.25;3.92;;;;;;;23.23;74.22;99953.16;18568457;31;20077;-56
2022/08/20 05:07:44;;;;;;;12.80;4.20;;;;;;;23.70;72.42;99953.78;18568848;31;20144;-56
2022/08/20 05:17:48;;;;;;;11.12;4.55;;;;;;;23.78;72.24;99969.28;18564371;32;20092;-56
2022/08/20 05:27:59;;;;;;;8.60;3.65;;;;;;;24.00;71.37;99944.75;18563853;32;20357;-56
2022/08/20 05:38:02;;;;;;;8.77;4.33;;;;;;;23.97;71.71;99950.28;18563716;31;20088;-56
2022/08/20 05:48:09;;;;;;;10.40;4.68;;;;;;;24.24;71.11;99952.12;18563064;31;20450;-56
2022/08/20 05:58:17;;;;;;;13.25;5.07;;;;;;;24.46;71.36;99935.50;18563385;31;20115;-56
2022/08/20 06:08:22;;;;;;;12.32;4.65;;;;;;;24.49;71.30;99945.09;18622964;31;20108;-56
2022/08/20 06:18:26;;;;;;;10.02;4.65;;;;;;;25.42;68.96;99945.84;18628913;31;20103;-56
2022/08/20 06:28:32;;;;;;;9.00;4.18;;;;;;;24.50;70.58;99941.47;18624375;31;20114;-56
2022/08/20 06:38:35;;;;;;;11.20;4.72;;;;;;;24.96;67.81;99936.62;18627307;31;20084;-56
2022/08/20 06:48:42;;;;;;;9.90;3.97;;;;;;;26.07;65.42;99951.81;18600820;31;20104;-56
2022/08/20 06:58:45;;;;;;;10.98;4.28;;;;;;;26.36;66.17;99964.03;18600466;31;20121;-56
2022/08/20 07:08:50;;;;;;;9.15;3.80;;;;;;;25.79;64.08;99961.91;18585569;31;20122;-56
2022/08/20 07:18:53;;;;;;;11.27;4.10;;;;;;;26.49;64.77;99980.00;18586162;31;102188;-56
2022/08/20 07:28:58;;;;;;;9.52;4.15;;;;;;;27.00;64.76;99989.50;18560739;31;20085;-56
2022/08/20 07:39:01;;;;;;;11.15;3.80;;;;;;;26.34;67.06;99993.56;18607398;31;20464;-56
2022/08/20 07:49:09;;;;;;;10.63;3.65;;;;;;;26.82;63.39;100002.44;18592126;31;20515;-56
2022/08/20 07:59:14;;;;;;;8.98;3.40;;;;;;;26.69;63.65;99998.06;18556527;31;20103;-56
2022/08/20 08:09:18;;;;;;;10.65;3.42;;;;;;;26.83;62.68;100010.37;18562718;31;20096;-56
2022/08/20 08:19:22;;;;;;;10.35;2.97;;;;;;;26.69;62.27;100043.56;18626349;31;20131;-56
2022/08/20 08:29:26;;;;;;;11.90;3.55;;;;;;;26.44;59.39;100111.47;18584033;31;20479;-56
2022/08/20 08:39:30;;;;;;;10.50;3.60;;;;;;;25.87;58.74;100135.13;18564661;32;20141;-56
2022/08/20 08:49:38;;;;;;;11.02;4.68;;;;;;;25.89;61.29;100160.78;18601073;31;20600;-56
2022/08/20 08:59:41;;;;;;;10.25;4.95;;;;;;;25.01;64.65;100143.59;18596951;31;20117;-56
2022/08/20 09:10:07;;;;;;;12.37;5.10;;;;;;;25.11;65.28;100134.97;18602330;31;20338;-56
2022/08/20 09:20:11;;;;;;;10.57;4.10;;;;;;;25.02;66.32;100115.94;18598227;31;20440;-56
2022/08/20 09:30:17;;;;;;;11.07;4.75;;;;;;;24.63;67.74;100158.50;18578714;31;20490;-56
2022/08/20 09:40:21;;;;;;;13.23;6.00;;;;;;;24.25;70.19;100160.00;18570813;31;20449;-57
2022/08/20 09:50:30;;;;;;;15.60;5.28;;;;;;;23.98;71.23;100240.72;18562529;32;20084;-56
2022/08/20 10:00:34;;;;;;;11.07;5.03;;;;;;;23.65;72.92;100232.97;18562072;31;20433;-56
2022/08/20 10:10:38;;;;;;;11.52;4.65;;;;;;;24.04;71.67;100188.00;18582582;31;20196;-56
2022/08/20 10:20:42;;;;;;;10.95;4.80;;;;;;;24.29;70.72;100136.66;18598038;31;20109;-56
2022/08/20 10:30:47;;;;;;;11.77;4.93;;;;;;;24.07;71.44;100071.41;18584690;31;20115;-57
2022/08/20 10:40:50;;;;;;;10.18;3.95;;;;;;;23.75;73.49;100078.75;18590802;31;20097;-57
2022/08/20 10:50:56;;;;;;;10.85;3.62;;;;;;;24.52;73.59;100076.47;18598585;31;20084;-56
2022/08/20 11:00:59;;;;;;;13.20;4.62;;;;;;;24.34;71.41;100083.91;18562370;31;20115;-56
2022/08/20 11:11:04;;;;;;;12.52;4.25;;;;;;;23.31;76.58;100102.69;18565612;31;20096;-56
2022/08/20 11:21:07;;;;;;;11.25;4.75;;;;;;;22.85;76.29;100128.37;18572927;31;20096;-56
2022/08/20 11:31:12;;;;;;;12.77;5.32;;;;;;;23.23;74.96;100132.41;18566432;31;20100;-57
2022/08/20 11:41:15;;;;;;;10.48;4.53;;;;;;;23.92;73.08;100115.84;18572735;31;20322;-56
2022/08/20 11:51:20;;;;;;;11.32;4.47;;;;;;;24.00;72.77;100115.34;18594331;31;20092;-56
2022/08/20 12:01:23;;;;;;;9.93;3.72;;;;;;;24.50;73.52;100097.06;18594308;31;20104;-57
2022/08/20 12:11:31;;;;;;;6.75;3.20;;;;;;;24.94;70.94;100078.22;18593059;31;20153;-56
2022/08/20 12:21:39;;;;;;;12.20;3.17;;;;;;;24.95;69.70;100074.59;18551685;32;20096;-56
2022/08/20 12:31:47;;;;;;;10.35;3.25;;;;;;;25.00;69.94;100060.94;18559200;32;20111;-56
2022/08/20 12:41:50;;;;;;;7.68;2.40;;;;;;;25.02;68.89;100034.97;18556102;32;20096;-56
2022/08/20 12:51:54;;;;;;;6.97;2.62;;;;;;;25.26;65.33;100018.19;18543421;32;20149;-56
2022/08/20 13:01:58;;;;;;;7.80;3.12;;;;;;;24.90;67.39;100007.31;18494579;32;20358;-56
2022/08/20 13:12:17;;;;;;;9.60;2.62;;;;;;;24.82;68.31;99994.50;18498237;32;20092;-56
2022/08/20 13:22:20;;;;;;;8.52;3.35;;;;;;;24.85;68.57;99985.41;18491151;32;20096;-55
2022/08/20 13:32:25;;;;;;;8.13;2.95;;;;;;;25.07;66.75;99964.28;18497865;32;20455;-56
2022/08/20 13:42:28;;;;;;;8.50;2.87;;;;;;;24.96;67.73;99965.97;18494815;32;20085;-56
2022/08/20 13:52:33;;;;;;;12.60;3.20;;;;;;;25.12;67.73;99966.62;18498822;32;20097;-56
2022/08/20 14:02:37;;;;;;;8.13;3.10;;;;;;;25.30;68.15;99974.31;18559353;32;20124;-56
2022/08/20 14:12:42;;;;;;;9.13;3.05;;;;;;;25.46;67.44;99960.69;18558163;31;20100;-57
2022/08/20 14:22:45;;;;;;;9.35;3.75;;;;;;;25.32;67.00;99994.56;18561865;32;20096;-56
2022/08/20 14:32:50;;;;;;;9.73;3.25;;;;;;;25.50;66.87;99994.25;18561844;32;20105;-56
2022/08/20 14:43:02;;;;;;;8.98;2.90;;;;;;;25.52;66.90;99992.34;18554534;31;20097;-56
2022/08/20 14:53:07;;;;;;;9.20;3.10;;;;;;;25.34;65.91;99962.41;18560249;32;20106;-56
2022/08/20 15:03:12;;;;;;;4.82;2.42;;;;;;;25.28;66.24;99945.03;18562266;32;20107;-56
2022/08/20 15:13:17;;;;;;;8.23;2.62;;;;;;;25.04;65.21;99961.84;18560718;32;20088;-56
2022/08/20 15:23:20;;;;;;;9.43;2.95;;;;;;;25.21;64.14;99984.66;18559520;32;20429;-56
2022/08/20 15:33:25;;;;;;;6.75;2.80;;;;;;;25.62;64.74;99998.75;18559742;32;20118;-56
2022/08/20 15:43:28;;;;;;;7.40;2.30;;;;;;;25.68;63.53;99991.22;18559120;32;20433;-56
2022/08/20 15:53:37;;;;;;;6.53;2.53;;;;;;;25.74;63.18;99975.59;18558674;32;20433;-56
2022/08/20 16:04:11;;;;;;;7.40;2.85;;;;;;;25.73;63.17;99978.41;18559146;32;20149;-56
2022/08/20 16:14:17;;;;;;;5.62;2.42;;;;;;;26.03;62.02;99977.09;18555498;32;20378;-56
2022/08/20 16:24:21;;;;;;;4.45;2.17;;;;;;;25.68;64.53;99973.38;18556766;32;20093;-56
2022/08/20 16:34:35;;;;;;;6.75;2.28;;;;;;;25.62;64.89;99980.03;18563601;32;20096;-56
2022/08/20 16:44:40;;;;;;;8.90;3.35;;;;;;;25.66;63.78;99991.38;18563830;32;20144;-56
2022/08/20 16:54:45;;;;;;;8.18;2.28;;;;;;;25.57;64.61;99990.19;18563869;32;20103;-56
2022/08/20 17:04:50;;;;;;;7.40;2.53;;;;;;;25.33;67.11;99992.78;18564616;32;20131;-56
2022/08/20 17:15:03;;;;;;;11.52;2.97;;;;;;;25.12;67.43;100004.00;18564249;32;20147;-56
2022/08/20 17:25:13;;;;;;;8.13;2.85;;;;;;;24.96;67.95;99988.22;18562872;32;20089;-56
2022/08/20 17:35:27;;;;;;;8.52;3.08;;;;;;;24.77;68.98;100002.78;18563673;32;20083;-56
2022/08/20 17:45:36;;;;;;;7.87;2.67;;;;;;;24.71;67.93;99987.19;18563542;32;20380;-55
2022/08/20 17:55:41;;;;;;;8.07;2.67;;;;;;;24.39;68.68;99977.75;18563309;32;20096;-55
2022/08/20 18:05:45;;;;;;;5.78;2.72;;;;;;;24.17;69.50;99967.66;18563697;32;20183;-56
2022/08/20 18:15:56;;;;;;;7.30;3.12;;;;;;;23.89;69.87;99988.09;18562858;32;20132;-56
2022/08/20 18:26:02;;;;;;;7.20;3.27;;;;;;;23.97;69.40;99988.44;18545393;32;20357;-56
2022/08/20 18:36:10;;;;;;;6.68;3.00;;;;;;;23.75;69.67;99985.47;18560806;32;20088;-56
2022/08/20 18:46:22;;;;;;;7.28;3.25;;;;;;;23.72;70.04;99977.69;18561831;31;20088;-56
2022/08/20 18:56:40;;;;;;;8.00;2.60;;;;;;;23.73;69.39;99966.06;18560356;32;20373;-56
2022/08/20 19:06:48;;;;;;;10.82;5.15;;;;;;;23.48;69.95;99986.28;18561208;32;20092;-56
2022/08/20 19:16:57;;;;;;;14.45;6.28;;;;;;;23.44;69.81;99988.28;18560074;32;20097;-56
2022/08/20 19:27:03;;;;;;;9.05;3.67;;;;;;;23.35;70.08;99983.53;18560042;32;20106;-57
2022/08/20 19:37:23;;;;;;;7.90;3.28;;;;;;;23.39;69.60;99977.06;18559860;32;20463;-56
2022/08/20 19:47:51;;;;;;;11.95;3.90;;;;;;;23.23;69.94;99943.38;18557638;32;20102;-55
2022/08/20 19:57:58;;;;;;;6.60;2.92;;;;;;;22.99;70.36;99948.41;18524442;32;20111;-56
2022/08/20 20:08:04;;;;;;;8.23;3.00;;;;;;;22.63;71.14;99968.31;18494610;32;20105;-56
2022/08/20 20:18:09;;;;;;;9.35;3.80;;;;;;;22.57;71.50;99953.59;18499204;32;20092;-55
2022/08/20 20:28:17;;;;;;;12.50;3.75;;;;;;;21.74;75.74;99950.31;18527334;32;20103;-56
2022/08/20 20:38:27;;;;;;;7.72;3.55;;;;;;;22.24;73.90;99926.22;18562875;32;20085;-56
2022/08/20 20:48:42;;;;;;;10.25;3.67;;;;;;;22.73;72.61;99927.78;18562122;32;20876;-57
2022/08/20 20:58:47;;;;;;;11.88;3.75;;;;;;;22.68;73.05;99908.56;18546610;32;20122;-56
2022/08/20 21:08:58;;;;;;;10.27;4.75;;;;;;;22.39;73.96;99900.53;18558861;32;20123;-56
2022/08/20 21:19:05;;;;;;;8.10;3.50;;;;;;;22.76;73.32;99910.75;18554431;32;20156;-56
2022/08/20 21:29:09;;;;;;;7.75;3.47;;;;;;;23.03;72.60;99920.66;18547276;32;20122;-56
2022/08/20 21:39:14;;;;;;;11.55;4.30;;;;;;;23.18;71.78;99923.31;18510911;32;20108;-56
2022/08/20 21:49:18;;;;;;;14.20;4.50;;;;;;;23.08;72.05;99923.91;18535640;32;20386;-56
2022/08/20 21:59:23;;;;;;;9.48;4.50;;;;;;;22.54;74.29;99935.16;18522684;32;20100;-56
2022/08/20 22:09:27;;;;;;;13.15;4.55;;;;;;;22.70;74.40;99927.13;18498315;32;20106;-55
2022/08/20 22:19:31;;;;;;;10.98;4.30;;;;;;;23.18;72.28;99924.16;18497792;32;20152;-55
2022/08/20 22:29:35;;;;;;;9.35;4.15;;;;;;;23.29;71.85;99923.53;18497421;32;20104;-56
2022/08/20 22:39:39;;;;;;;10.20;4.25;;;;;;;23.26;71.95;99923.69;18496035;32;20092;-55
2022/08/20 22:49:43;;;;;;;11.90;4.90;;;;;;;23.03;72.63;99923.31;18496710;32;20112;-56
2022/08/20 22:59:47;;;;;;;10.85;4.72;;;;;;;23.05;72.18;99905.47;18496629;32;20096;-56
2022/08/20 23:09:55;;;;;;;10.63;4.20;;;;;;;22.95;72.67;99909.63;18544211;32;20103;-56
2022/08/20 23:20:00;;;;;;;10.73;5.00;;;;;;;23.05;72.41;99883.31;18551025;32;20740;-56
2022/08/20 23:30:04;;;;;;;9.43;4.20;;;;;;;23.04;72.68;99878.94;18557065;32;20091;-56
2022/08/20 23:40:10;;;;;;;11.73;4.45;;;;;;;23.20;71.84;99866.38;18493981;32;20125;-56
2022/08/20 23:50:16;;;;;;;12.73;4.07;;;;;;;23.07;71.97;99874.28;18494126;32;20472;-56
